Osage River (Missouri), Saint Thomas (06926510)

StateMissouriLatestUnknown (23400 cfs)
RiverOsage RiverRatingObservedEstimated
Updated2020-08-07 12:45 (24 minutes ago)Flood - The river is flooding. Obstacles can be treacherous or deadly. The river should be avoided at this stage for casual trips and definitely for the inexperienced. Trips should be attempted only with protective gear and equipment.Flood(none)(none)
Discharge23400 cfs (median: 2350 cfs)High - The river is high and potentially dangerous, especially for the young and / or inexperienced. Normal stream obstacles are sometimes difficult to navigate. Extended distances can be attempted, but canoe travel may not be advisable.High(none)(none)
Height9.95 feetGood - Conditions are ideal for a canoe or kayak. Boats typically will drag on fewer than one-quarter of riffles, if at all, and portages are unnecessary or rare. Normal float lengths can be attempted without a problem.Good(none)(none)
TrendFalling (falling over 24 hours)Low - River is low but can still be floated. Some riffles are okay but most come with significant dragging and might need a portage. Float lengths should be reduced to accommodate low flow, dragging, and portages.Low(none)(none)
USGSExternal icon USGS Site (External icon Google Maps)Poor - River is too low to float comfortably. Most or all riffles will drag or must be portaged and some obstacles (such as slick shelf rock) cause undue problems. Avoid the river at this stage for casual paddling trips.Poor(none)(none)

Trending Data

Plot Image

Trips for Osage River (Missouri), Saint Thomas (06926510)

DateStartEndDistanceConditionDischargeHeightFishingDetails

A total of 0 rows are displayed.

Condition Descriptions

Fishing Conditions

Fish Species

Notes

Classic Trip List

The classic River Trips application is still available for use. It is updated with the new system using a data retrofit. It is no longer maintained. The original River Trips application is no longer updated (as of 1 Dec 2016) but can be checked for errors or for the condition of the data before it was converted to the new system.

Gauge Data Table

ObservationHeightDischargeMaximum
Discharge
Minimum
Discharge
Mean
Discharge
P05P10P20P25P50
(Median)
P75P80P90P95
2020-08-07 12:45 9.95 23400 65700 (2013) 512 (1997) 12700 556 825 1030 1170 2350 19500 25900 48900 63500
2020-08-07 11:45 10.40 24900 65700 (2013) 512 (1997) 12700 556 825 1030 1170 2350 19500 25900 48900 63500
2020-08-07 10:45 10.85 26500 65700 (2013) 512 (1997) 12700 556 825 1030 1170 2350 19500 25900 48900 63500
2020-08-07 09:45 11.23 27900 65700 (2013) 512 (1997) 12700 556 825 1030 1170 2350 19500 25900 48900 63500
2020-08-07 08:45 11.68 29500 65700 (2013) 512 (1997) 12700 556 825 1030 1170 2350 19500 25900 48900 63500
2020-08-07 07:45 12.03 30900 65700 (2013) 512 (1997) 12700 556 825 1030 1170 2350 19500 25900 48900 63500
2020-08-07 06:45 12.33 32000 65700 (2013) 512 (1997) 12700 556 825 1030 1170 2350 19500 25900 48900 63500
2020-08-07 05:45 12.59 33000 65700 (2013) 512 (1997) 12700 556 825 1030 1170 2350 19500 25900 48900 63500
2020-08-07 04:45 12.71 33500 65700 (2013) 512 (1997) 12700 556 825 1030 1170 2350 19500 25900 48900 63500
2020-08-07 03:45 12.78 33800 65700 (2013) 512 (1997) 12700 556 825 1030 1170 2350 19500 25900 48900 63500
2020-08-07 02:45 12.72 33500 65700 (2013) 512 (1997) 12700 556 825 1030 1170 2350 19500 25900 48900 63500
2020-08-07 01:45 12.62 33100 65700 (2013) 512 (1997) 12700 556 825 1030 1170 2350 19500 25900 48900 63500
2020-08-07 00:45 12.34 32100 65700 (2013) 512 (1997) 12700 556 825 1030 1170 2350 19500 25900 48900 63500
2020-08-06 23:45 12.29 31900 51200 (2019) 653 (1997) 11000 654 783 1230 1300 2280 21700 22900 35000 49200
2020-08-06 22:45 12.16 31400 51200 (2019) 653 (1997) 11000 654 783 1230 1300 2280 21700 22900 35000 49200
2020-08-06 21:45 11.94 30500 51200 (2019) 653 (1997) 11000 654 783 1230 1300 2280 21700 22900 35000 49200
2020-08-06 20:45 11.76 29800 51200 (2019) 653 (1997) 11000 654 783 1230 1300 2280 21700 22900 35000 49200
2020-08-06 19:45 11.56 29100 51200 (2019) 653 (1997) 11000 654 783 1230 1300 2280 21700 22900 35000 49200
2020-08-06 18:45 11.36 28300 51200 (2019) 653 (1997) 11000 654 783 1230 1300 2280 21700 22900 35000 49200
2020-08-06 17:45 11.14 27600 51200 (2019) 653 (1997) 11000 654 783 1230 1300 2280 21700 22900 35000 49200
2020-08-06 16:45 10.96 26900 51200 (2019) 653 (1997) 11000 654 783 1230 1300 2280 21700 22900 35000 49200
2020-08-06 15:45 10.80 26300 51200 (2019) 653 (1997) 11000 654 783 1230 1300 2280 21700 22900 35000 49200
2020-08-06 14:45 10.71 26000 51200 (2019) 653 (1997) 11000 654 783 1230 1300 2280 21700 22900 35000 49200
2020-08-06 13:45 10.70 26000 51200 (2019) 653 (1997) 11000 654 783 1230 1300 2280 21700 22900 35000 49200
2020-08-06 12:45 10.73 26100 51200 (2019) 653 (1997) 11000 654 783 1230 1300 2280 21700 22900 35000 49200
2020-08-06 11:45 10.88 26600 51200 (2019) 653 (1997) 11000 654 783 1230 1300 2280 21700 22900 35000 49200
2020-08-06 10:45 11.02 27100 51200 (2019) 653 (1997) 11000 654 783 1230 1300 2280 21700 22900 35000 49200
2020-08-06 09:45 11.15 27600 51200 (2019) 653 (1997) 11000 654 783 1230 1300 2280 21700 22900 35000 49200
2020-08-06 08:45 11.34 28300 51200 (2019) 653 (1997) 11000 654 783 1230 1300 2280 21700 22900 35000 49200
2020-08-06 07:45 11.53 29000 51200 (2019) 653 (1997) 11000 654 783 1230 1300 2280 21700 22900 35000 49200
2020-08-06 06:45 11.68 29500 51200 (2019) 653 (1997) 11000 654 783 1230 1300 2280 21700 22900 35000 49200
2020-08-06 05:45 11.63 29400 51200 (2019) 653 (1997) 11000 654 783 1230 1300 2280 21700 22900 35000 49200
2020-08-06 04:45 11.68 29500 51200 (2019) 653 (1997) 11000 654 783 1230 1300 2280 21700 22900 35000 49200
2020-08-06 03:45 11.51 28900 51200 (2019) 653 (1997) 11000 654 783 1230 1300 2280 21700 22900 35000 49200
2020-08-06 02:45 11.54 29000 51200 (2019) 653 (1997) 11000 654 783 1230 1300 2280 21700 22900 35000 49200
2020-08-06 01:45 11.47 28800 51200 (2019) 653 (1997) 11000 654 783 1230 1300 2280 21700 22900 35000 49200
2020-08-06 00:45 11.29 28100 51200 (2019) 653 (1997) 11000 654 783 1230 1300 2280 21700 22900 35000 49200

A total of 37 rows are displayed for years 1997 through 2019.